sensor_id;sensor_type;location;lat;lon;timestamp;P1;durP1;ratioP1;P2;durP2;ratioP2
56233;SDS011;42141;53.240;6.580;2022-12-18T00:00:59;80.32;;;29.48;;
56233;SDS011;42141;53.240;6.580;2022-12-18T00:03:25;81.07;;;29.33;;
56233;SDS011;42141;53.240;6.580;2022-12-18T00:05:51;79.75;;;28.13;;
56233;SDS011;42141;53.240;6.580;2022-12-18T00:08:17;71.63;;;27.20;;
56233;SDS011;42141;53.240;6.580;2022-12-18T00:10:44;75.05;;;26.83;;
56233;SDS011;42141;53.240;6.580;2022-12-18T00:13:10;73.22;;;29.63;;
56233;SDS011;42141;53.240;6.580;2022-12-18T00:15:37;80.40;;;29.42;;
56233;SDS011;42141;53.240;6.580;2022-12-18T00:18:04;78.78;;;29.35;;
56233;SDS011;42141;53.240;6.580;2022-12-18T00:20:30;75.53;;;27.38;;
56233;SDS011;42141;53.240;6.580;2022-12-18T00:22:56;75.25;;;27.27;;
56233;SDS011;42141;53.240;6.580;2022-12-18T00:25:22;74.45;;;24.50;;
56233;SDS011;42141;53.240;6.580;2022-12-18T00:27:47;75.25;;;27.42;;
56233;SDS011;42141;53.240;6.580;2022-12-18T00:30:14;67.63;;;25.92;;
56233;SDS011;42141;53.240;6.580;2022-12-18T00:32:39;80.90;;;28.63;;
56233;SDS011;42141;53.240;6.580;2022-12-18T00:35:06;80.63;;;28.55;;
56233;SDS011;42141;53.240;6.580;2022-12-18T00:37:35;69.10;;;26.98;;
56233;SDS011;42141;53.240;6.580;2022-12-18T00:40:01;76.50;;;29.70;;
56233;SDS011;42141;53.240;6.580;2022-12-18T00:42:27;72.05;;;26.75;;
56233;SDS011;42141;53.240;6.580;2022-12-18T00:45:12;82.03;;;27.88;;
56233;SDS011;42141;53.240;6.580;2022-12-18T00:47:37;71.70;;;25.80;;
56233;SDS011;42141;53.240;6.580;2022-12-18T00:50:03;69.38;;;26.25;;
56233;SDS011;42141;53.240;6.580;2022-12-18T00:52:29;73.35;;;26.48;;
56233;SDS011;42141;53.240;6.580;2022-12-18T00:54:55;70.70;;;27.85;;
56233;SDS011;42141;53.240;6.580;2022-12-18T00:57:20;73.28;;;28.63;;
56233;SDS011;42141;53.240;6.580;2022-12-18T00:59:46;66.68;;;26.35;;
56233;SDS011;42141;53.240;6.580;2022-12-18T01:02:11;71.82;;;26.95;;
56233;SDS011;42141;53.240;6.580;2022-12-18T01:04:37;71.15;;;25.80;;
56233;SDS011;42141;53.240;6.580;2022-12-18T01:07:03;67.15;;;24.20;;
56233;SDS011;42141;53.240;6.580;2022-12-18T01:09:28;64.38;;;25.52;;
56233;SDS011;42141;53.240;6.580;2022-12-18T01:11:54;66.78;;;25.73;;
56233;SDS011;42141;53.240;6.580;2022-12-18T01:14:20;70.35;;;26.48;;
56233;SDS011;42141;53.240;6.580;2022-12-18T01:16:46;68.50;;;26.23;;
56233;SDS011;42141;53.240;6.580;2022-12-18T01:19:11;68.57;;;25.88;;
56233;SDS011;42141;53.240;6.580;2022-12-18T01:21:37;65.63;;;26.05;;
56233;SDS011;42141;53.240;6.580;2022-12-18T01:24:03;70.95;;;26.75;;
56233;SDS011;42141;53.240;6.580;2022-12-18T01:26:29;69.88;;;25.15;;
56233;SDS011;42141;53.240;6.580;2022-12-18T01:28:55;72.82;;;25.00;;
56233;SDS011;42141;53.240;6.580;2022-12-18T01:31:23;71.20;;;27.00;;
56233;SDS011;42141;53.240;6.580;2022-12-18T01:33:51;73.47;;;23.95;;
56233;SDS011;42141;53.240;6.580;2022-12-18T01:36:18;75.28;;;27.65;;
56233;SDS011;42141;53.240;6.580;2022-12-18T01:38:49;71.80;;;26.33;;
56233;SDS011;42141;53.240;6.580;2022-12-18T01:41:16;68.10;;;25.38;;
56233;SDS011;42141;53.240;6.580;2022-12-18T01:46:19;79.80;;;27.35;;
56233;SDS011;42141;53.240;6.580;2022-12-18T01:48:47;77.93;;;27.65;;
56233;SDS011;42141;53.240;6.580;2022-12-18T01:51:15;79.30;;;27.30;;
56233;SDS011;42141;53.240;6.580;2022-12-18T01:53:42;70.43;;;26.42;;
56233;SDS011;42141;53.240;6.580;2022-12-18T01:56:12;67.72;;;26.15;;
56233;SDS011;42141;53.240;6.580;2022-12-18T01:58:52;66.78;;;26.92;;
56233;SDS011;42141;53.240;6.580;2022-12-18T02:01:27;71.20;;;26.65;;
56233;SDS011;42141;53.240;6.580;2022-12-18T02:03:55;77.47;;;25.77;;
56233;SDS011;42141;53.240;6.580;2022-12-18T02:09:13;66.95;;;25.80;;
56233;SDS011;42141;53.240;6.580;2022-12-18T02:24:45;80.53;;;27.38;;
56233;SDS011;42141;53.240;6.580;2022-12-18T02:27:21;70.38;;;27.70;;
56233;SDS011;42141;53.240;6.580;2022-12-18T02:29:51;72.38;;;25.98;;
56233;SDS011;42141;53.240;6.580;2022-12-18T02:32:21;72.43;;;27.70;;
56233;SDS011;42141;53.240;6.580;2022-12-18T02:34:50;79.53;;;26.05;;
56233;SDS011;42141;53.240;6.580;2022-12-18T02:37:18;76.07;;;28.02;;
56233;SDS011;42141;53.240;6.580;2022-12-18T02:39:46;82.43;;;29.30;;
56233;SDS011;42141;53.240;6.580;2022-12-18T02:42:13;92.63;;;30.25;;
56233;SDS011;42141;53.240;6.580;2022-12-18T02:44:47;73.05;;;27.30;;
56233;SDS011;42141;53.240;6.580;2022-12-18T02:47:16;77.65;;;27.48;;
56233;SDS011;42141;53.240;6.580;2022-12-18T02:58:15;79.25;;;27.08;;
56233;SDS011;42141;53.240;6.580;2022-12-18T03:01:09;86.18;;;28.98;;
56233;SDS011;42141;53.240;6.580;2022-12-18T03:03:54;76.53;;;28.60;;
56233;SDS011;42141;53.240;6.580;2022-12-18T03:06:30;71.50;;;25.65;;
56233;SDS011;42141;53.240;6.580;2022-12-18T03:09:06;82.28;;;26.67;;
56233;SDS011;42141;53.240;6.580;2022-12-18T03:11:37;79.72;;;25.67;;
56233;SDS011;42141;53.240;6.580;2022-12-18T03:14:25;83.38;;;28.27;;
56233;SDS011;42141;53.240;6.580;2022-12-18T03:16:57;74.00;;;27.98;;
56233;SDS011;42141;53.240;6.580;2022-12-18T03:19:28;80.28;;;27.17;;
56233;SDS011;42141;53.240;6.580;2022-12-18T03:21:57;85.25;;;29.42;;
56233;SDS011;42141;53.240;6.580;2022-12-18T03:24:26;78.63;;;26.15;;
56233;SDS011;42141;53.240;6.580;2022-12-18T03:26:56;78.78;;;27.85;;
56233;SDS011;42141;53.240;6.580;2022-12-18T03:29:26;83.38;;;29.17;;
56233;SDS011;42141;53.240;6.580;2022-12-18T03:32:00;92.85;;;27.77;;
56233;SDS011;42141;53.240;6.580;2022-12-18T03:34:30;75.15;;;28.75;;
56233;SDS011;42141;53.240;6.580;2022-12-18T03:36:59;70.38;;;28.33;;
56233;SDS011;42141;53.240;6.580;2022-12-18T03:39:26;74.95;;;27.75;;
56233;SDS011;42141;53.240;6.580;2022-12-18T03:47:27;81.53;;;26.88;;
56233;SDS011;42141;53.240;6.580;2022-12-18T03:49:56;78.38;;;28.10;;
56233;SDS011;42141;53.240;6.580;2022-12-18T03:55:22;74.82;;;28.05;;
56233;SDS011;42141;53.240;6.580;2022-12-18T03:57:50;74.63;;;27.70;;
56233;SDS011;42141;53.240;6.580;2022-12-18T04:00:18;82.65;;;28.42;;
56233;SDS011;42141;53.240;6.580;2022-12-18T04:02:51;83.65;;;29.85;;
56233;SDS011;42141;53.240;6.580;2022-12-18T04:05:20;79.80;;;28.02;;
56233;SDS011;42141;53.240;6.580;2022-12-18T04:07:48;78.68;;;28.65;;
56233;SDS011;42141;53.240;6.580;2022-12-18T04:10:17;85.05;;;30.40;;
56233;SDS011;42141;53.240;6.580;2022-12-18T04:12:43;83.38;;;29.70;;
56233;SDS011;42141;53.240;6.580;2022-12-18T04:15:09;74.75;;;27.83;;
56233;SDS011;42141;53.240;6.580;2022-12-18T04:17:36;72.22;;;26.45;;
56233;SDS011;42141;53.240;6.580;2022-12-18T04:20:04;77.30;;;26.92;;
56233;SDS011;42141;53.240;6.580;2022-12-18T04:22:30;69.63;;;27.95;;
56233;SDS011;42141;53.240;6.580;2022-12-18T04:24:56;79.57;;;28.10;;
56233;SDS011;42141;53.240;6.580;2022-12-18T04:27:21;81.35;;;27.25;;
56233;SDS011;42141;53.240;6.580;2022-12-18T04:29:47;75.82;;;27.20;;
56233;SDS011;42141;53.240;6.580;2022-12-18T04:32:13;79.00;;;28.80;;
56233;SDS011;42141;53.240;6.580;2022-12-18T04:34:38;80.63;;;26.10;;
56233;SDS011;42141;53.240;6.580;2022-12-18T04:37:04;83.93;;;28.02;;
56233;SDS011;42141;53.240;6.580;2022-12-18T04:39:29;80.97;;;27.55;;
56233;SDS011;42141;53.240;6.580;2022-12-18T04:41:55;63.83;;;25.27;;
56233;SDS011;42141;53.240;6.580;2022-12-18T04:44:21;75.32;;;26.88;;
56233;SDS011;42141;53.240;6.580;2022-12-18T04:46:46;73.25;;;26.80;;
56233;SDS011;42141;53.240;6.580;2022-12-18T04:49:12;77.68;;;27.27;;
56233;SDS011;42141;53.240;6.580;2022-12-18T04:51:38;76.82;;;27.15;;
56233;SDS011;42141;53.240;6.580;2022-12-18T04:54:04;82.25;;;27.45;;
56233;SDS011;42141;53.240;6.580;2022-12-18T04:56:30;68.70;;;26.15;;
56233;SDS011;42141;53.240;6.580;2022-12-18T04:58:56;78.75;;;25.60;;
56233;SDS011;42141;53.240;6.580;2022-12-18T05:01:22;75.50;;;27.35;;
56233;SDS011;42141;53.240;6.580;2022-12-18T05:03:48;77.05;;;25.67;;
56233;SDS011;42141;53.240;6.580;2022-12-18T05:06:14;74.55;;;26.17;;
56233;SDS011;42141;53.240;6.580;2022-12-18T05:08:39;73.70;;;24.77;;
56233;SDS011;42141;53.240;6.580;2022-12-18T05:11:09;75.47;;;25.90;;
56233;SDS011;42141;53.240;6.580;2022-12-18T05:13:36;74.70;;;26.83;;
56233;SDS011;42141;53.240;6.580;2022-12-18T05:16:03;65.63;;;26.23;;
56233;SDS011;42141;53.240;6.580;2022-12-18T05:18:29;73.50;;;26.13;;
56233;SDS011;42141;53.240;6.580;2022-12-18T05:20:55;76.60;;;25.83;;
56233;SDS011;42141;53.240;6.580;2022-12-18T05:23:21;70.75;;;25.58;;
56233;SDS011;42141;53.240;6.580;2022-12-18T05:25:50;61.28;;;22.58;;
56233;SDS011;42141;53.240;6.580;2022-12-18T05:28:17;70.45;;;25.52;;
56233;SDS011;42141;53.240;6.580;2022-12-18T05:30:47;64.47;;;22.25;;
56233;SDS011;42141;53.240;6.580;2022-12-18T05:33:16;61.80;;;22.98;;
56233;SDS011;42141;53.240;6.580;2022-12-18T05:35:43;67.57;;;25.05;;
56233;SDS011;42141;53.240;6.580;2022-12-18T05:38:09;68.45;;;24.92;;
56233;SDS011;42141;53.240;6.580;2022-12-18T05:40:40;66.55;;;23.65;;
56233;SDS011;42141;53.240;6.580;2022-12-18T05:43:08;64.82;;;21.75;;
56233;SDS011;42141;53.240;6.580;2022-12-18T05:45:36;59.22;;;22.25;;
56233;SDS011;42141;53.240;6.580;2022-12-18T05:48:05;68.82;;;23.90;;
56233;SDS011;42141;53.240;6.580;2022-12-18T05:50:37;68.43;;;22.75;;
56233;SDS011;42141;53.240;6.580;2022-12-18T05:53:04;52.60;;;21.88;;
56233;SDS011;42141;53.240;6.580;2022-12-18T05:55:38;65.85;;;23.33;;
56233;SDS011;42141;53.240;6.580;2022-12-18T05:58:05;55.45;;;21.88;;
56233;SDS011;42141;53.240;6.580;2022-12-18T06:00:32;64.20;;;21.65;;
56233;SDS011;42141;53.240;6.580;2022-12-18T06:03:00;57.40;;;23.27;;
56233;SDS011;42141;53.240;6.580;2022-12-18T06:05:26;62.10;;;21.50;;
56233;SDS011;42141;53.240;6.580;2022-12-18T06:07:51;56.33;;;21.73;;
56233;SDS011;42141;53.240;6.580;2022-12-18T06:10:17;64.53;;;23.20;;
56233;SDS011;42141;53.240;6.580;2022-12-18T06:12:43;56.42;;;21.05;;
56233;SDS011;42141;53.240;6.580;2022-12-18T06:15:09;57.55;;;21.20;;
56233;SDS011;42141;53.240;6.580;2022-12-18T06:17:35;59.97;;;20.83;;
56233;SDS011;42141;53.240;6.580;2022-12-18T06:20:02;58.05;;;21.48;;
56233;SDS011;42141;53.240;6.580;2022-12-18T06:22:30;60.17;;;21.02;;
56233;SDS011;42141;53.240;6.580;2022-12-18T06:24:57;60.83;;;19.95;;
56233;SDS011;42141;53.240;6.580;2022-12-18T06:27:22;55.75;;;20.70;;
56233;SDS011;42141;53.240;6.580;2022-12-18T06:29:48;50.58;;;20.73;;
56233;SDS011;42141;53.240;6.580;2022-12-18T06:32:14;53.05;;;21.30;;
56233;SDS011;42141;53.240;6.580;2022-12-18T06:34:39;46.40;;;20.17;;
56233;SDS011;42141;53.240;6.580;2022-12-18T06:37:05;46.28;;;18.88;;
56233;SDS011;42141;53.240;6.580;2022-12-18T06:39:31;57.88;;;19.08;;
56233;SDS011;42141;53.240;6.580;2022-12-18T06:41:56;50.65;;;20.38;;
56233;SDS011;42141;53.240;6.580;2022-12-18T06:44:22;56.45;;;21.13;;
56233;SDS011;42141;53.240;6.580;2022-12-18T06:46:48;51.42;;;19.67;;
56233;SDS011;42141;53.240;6.580;2022-12-18T06:49:14;50.28;;;20.25;;
56233;SDS011;42141;53.240;6.580;2022-12-18T06:51:41;45.50;;;18.40;;
56233;SDS011;42141;53.240;6.580;2022-12-18T06:54:07;45.33;;;19.90;;
56233;SDS011;42141;53.240;6.580;2022-12-18T06:56:33;48.45;;;19.95;;
56233;SDS011;42141;53.240;6.580;2022-12-18T06:58:58;43.80;;;17.35;;
56233;SDS011;42141;53.240;6.580;2022-12-18T07:01:24;44.03;;;17.23;;
56233;SDS011;42141;53.240;6.580;2022-12-18T07:03:54;51.38;;;18.52;;
56233;SDS011;42141;53.240;6.580;2022-12-18T07:06:21;39.75;;;17.73;;
56233;SDS011;42141;53.240;6.580;2022-12-18T07:08:49;47.78;;;18.52;;
56233;SDS011;42141;53.240;6.580;2022-12-18T07:11:16;49.20;;;19.40;;
56233;SDS011;42141;53.240;6.580;2022-12-18T07:13:42;44.72;;;18.30;;
56233;SDS011;42141;53.240;6.580;2022-12-18T07:16:11;43.70;;;18.02;;
56233;SDS011;42141;53.240;6.580;2022-12-18T07:18:41;45.95;;;19.27;;
56233;SDS011;42141;53.240;6.580;2022-12-18T07:21:08;40.88;;;17.77;;
56233;SDS011;42141;53.240;6.580;2022-12-18T07:23:35;41.33;;;18.33;;
56233;SDS011;42141;53.240;6.580;2022-12-18T07:26:04;44.33;;;17.23;;
56233;SDS011;42141;53.240;6.580;2022-12-18T07:28:32;39.83;;;16.35;;
56233;SDS011;42141;53.240;6.580;2022-12-18T07:31:12;38.92;;;17.80;;
56233;SDS011;42141;53.240;6.580;2022-12-18T07:33:42;40.15;;;16.70;;
56233;SDS011;42141;53.240;6.580;2022-12-18T07:36:09;36.85;;;15.55;;
56233;SDS011;42141;53.240;6.580;2022-12-18T07:38:35;35.88;;;15.55;;
56233;SDS011;42141;53.240;6.580;2022-12-18T07:41:02;35.63;;;16.13;;
56233;SDS011;42141;53.240;6.580;2022-12-18T07:43:28;44.03;;;18.38;;
56233;SDS011;42141;53.240;6.580;2022-12-18T07:45:54;35.25;;;16.48;;
56233;SDS011;42141;53.240;6.580;2022-12-18T07:48:20;38.22;;;15.50;;
56233;SDS011;42141;53.240;6.580;2022-12-18T07:50:46;38.10;;;16.75;;
56233;SDS011;42141;53.240;6.580;2022-12-18T07:53:11;38.92;;;15.95;;
56233;SDS011;42141;53.240;6.580;2022-12-18T07:55:37;33.03;;;15.63;;
56233;SDS011;42141;53.240;6.580;2022-12-18T07:58:03;36.67;;;15.73;;
56233;SDS011;42141;53.240;6.580;2022-12-18T08:00:29;40.05;;;15.93;;
56233;SDS011;42141;53.240;6.580;2022-12-18T08:02:56;36.45;;;15.88;;
56233;SDS011;42141;53.240;6.580;2022-12-18T08:05:22;38.33;;;15.68;;
56233;SDS011;42141;53.240;6.580;2022-12-18T08:07:49;33.38;;;15.23;;
56233;SDS011;42141;53.240;6.580;2022-12-18T08:10:14;35.47;;;15.68;;
56233;SDS011;42141;53.240;6.580;2022-12-18T08:12:40;35.00;;;15.65;;
56233;SDS011;42141;53.240;6.580;2022-12-18T08:15:06;37.83;;;15.60;;
56233;SDS011;42141;53.240;6.580;2022-12-18T08:17:32;37.60;;;15.77;;
56233;SDS011;42141;53.240;6.580;2022-12-18T08:19:58;33.65;;;16.25;;
56233;SDS011;42141;53.240;6.580;2022-12-18T08:22:23;31.20;;;15.85;;
56233;SDS011;42141;53.240;6.580;2022-12-18T08:24:49;30.20;;;14.95;;
56233;SDS011;42141;53.240;6.580;2022-12-18T08:27:15;36.90;;;16.52;;
56233;SDS011;42141;53.240;6.580;2022-12-18T08:29:41;36.78;;;15.82;;
56233;SDS011;42141;53.240;6.580;2022-12-18T08:32:06;28.63;;;14.30;;
56233;SDS011;42141;53.240;6.580;2022-12-18T08:34:32;35.72;;;15.27;;
56233;SDS011;42141;53.240;6.580;2022-12-18T08:36:58;36.75;;;15.77;;
56233;SDS011;42141;53.240;6.580;2022-12-18T08:39:23;32.33;;;13.85;;
56233;SDS011;42141;53.240;6.580;2022-12-18T08:41:49;30.52;;;14.60;;
56233;SDS011;42141;53.240;6.580;2022-12-18T08:44:33;32.15;;;15.18;;
56233;SDS011;42141;53.240;6.580;2022-12-18T08:47:02;35.35;;;15.43;;
56233;SDS011;42141;53.240;6.580;2022-12-18T08:49:28;32.08;;;15.20;;
56233;SDS011;42141;53.240;6.580;2022-12-18T08:51:54;35.83;;;14.98;;
56233;SDS011;42141;53.240;6.580;2022-12-18T08:54:22;30.83;;;13.80;;
56233;SDS011;42141;53.240;6.580;2022-12-18T08:56:48;32.13;;;16.05;;
56233;SDS011;42141;53.240;6.580;2022-12-18T08:59:14;32.33;;;15.93;;
56233;SDS011;42141;53.240;6.580;2022-12-18T09:01:45;37.25;;;16.73;;
56233;SDS011;42141;53.240;6.580;2022-12-18T09:04:11;32.80;;;15.10;;
56233;SDS011;42141;53.240;6.580;2022-12-18T09:06:38;35.72;;;15.98;;
56233;SDS011;42141;53.240;6.580;2022-12-18T09:09:04;32.33;;;14.93;;
56233;SDS011;42141;53.240;6.580;2022-12-18T09:11:30;27.63;;;13.65;;
56233;SDS011;42141;53.240;6.580;2022-12-18T09:13:57;30.10;;;14.27;;
56233;SDS011;42141;53.240;6.580;2022-12-18T09:16:24;31.30;;;14.27;;
56233;SDS011;42141;53.240;6.580;2022-12-18T09:18:53;30.77;;;15.38;;
56233;SDS011;42141;53.240;6.580;2022-12-18T09:21:24;31.92;;;14.63;;
56233;SDS011;42141;53.240;6.580;2022-12-18T09:23:53;30.80;;;13.57;;
56233;SDS011;42141;53.240;6.580;2022-12-18T09:26:20;27.83;;;14.05;;
56233;SDS011;42141;53.240;6.580;2022-12-18T09:28:48;29.45;;;14.40;;
56233;SDS011;42141;53.240;6.580;2022-12-18T09:31:14;27.20;;;12.95;;
56233;SDS011;42141;53.240;6.580;2022-12-18T09:33:40;22.98;;;13.38;;
56233;SDS011;42141;53.240;6.580;2022-12-18T09:36:07;32.55;;;13.55;;
56233;SDS011;42141;53.240;6.580;2022-12-18T09:38:34;28.95;;;12.98;;
56233;SDS011;42141;53.240;6.580;2022-12-18T09:41:03;27.45;;;14.20;;
56233;SDS011;42141;53.240;6.580;2022-12-18T09:43:49;27.38;;;13.88;;
56233;SDS011;42141;53.240;6.580;2022-12-18T09:46:18;24.88;;;13.27;;
56233;SDS011;42141;53.240;6.580;2022-12-18T09:51:19;23.40;;;11.98;;
56233;SDS011;42141;53.240;6.580;2022-12-18T09:54:15;27.20;;;12.27;;
56233;SDS011;42141;53.240;6.580;2022-12-18T09:56:45;27.65;;;13.15;;
56233;SDS011;42141;53.240;6.580;2022-12-18T09:59:21;21.92;;;11.48;;
56233;SDS011;42141;53.240;6.580;2022-12-18T10:02:15;23.38;;;11.57;;
56233;SDS011;42141;53.240;6.580;2022-12-18T10:04:41;21.80;;;10.95;;
56233;SDS011;42141;53.240;6.580;2022-12-18T10:07:09;20.30;;;10.98;;
56233;SDS011;42141;53.240;6.580;2022-12-18T10:09:58;21.65;;;11.35;;
56233;SDS011;42141;53.240;6.580;2022-12-18T10:20:54;24.75;;;11.38;;
56233;SDS011;42141;53.240;6.580;2022-12-18T10:26:03;17.75;;;10.20;;
56233;SDS011;42141;53.240;6.580;2022-12-18T10:28:31;17.50;;;9.43;;
56233;SDS011;42141;53.240;6.580;2022-12-18T10:30:59;23.13;;;10.32;;
56233;SDS011;42141;53.240;6.580;2022-12-18T10:33:28;22.55;;;9.05;;
56233;SDS011;42141;53.240;6.580;2022-12-18T10:35:55;18.45;;;9.18;;
56233;SDS011;42141;53.240;6.580;2022-12-18T10:38:25;19.17;;;8.50;;
56233;SDS011;42141;53.240;6.580;2022-12-18T10:43:30;13.88;;;7.82;;
56233;SDS011;42141;53.240;6.580;2022-12-18T10:46:02;17.73;;;8.75;;
56233;SDS011;42141;53.240;6.580;2022-12-18T10:51:16;14.43;;;7.40;;
56233;SDS011;42141;53.240;6.580;2022-12-18T10:54:35;19.58;;;11.40;;
56233;SDS011;42141;53.240;6.580;2022-12-18T10:56:44;14.63;;;7.47;;
56233;SDS011;42141;53.240;6.580;2022-12-18T10:59:11;15.73;;;7.97;;
56233;SDS011;42141;53.240;6.580;2022-12-18T11:01:48;11.35;;;7.13;;
56233;SDS011;42141;53.240;6.580;2022-12-18T11:04:26;15.75;;;7.43;;
56233;SDS011;42141;53.240;6.580;2022-12-18T11:06:58;11.63;;;6.57;;
56233;SDS011;42141;53.240;6.580;2022-12-18T11:09:33;10.90;;;6.15;;
56233;SDS011;42141;53.240;6.580;2022-12-18T11:12:19;10.82;;;5.72;;
56233;SDS011;42141;53.240;6.580;2022-12-18T11:14:48;10.45;;;5.97;;
56233;SDS011;42141;53.240;6.580;2022-12-18T11:17:30;11.32;;;6.20;;
56233;SDS011;42141;53.240;6.580;2022-12-18T11:19:58;10.32;;;5.82;;
56233;SDS011;42141;53.240;6.580;2022-12-18T11:22:26;9.25;;;4.85;;
56233;SDS011;42141;53.240;6.580;2022-12-18T11:24:54;10.05;;;5.75;;
56233;SDS011;42141;53.240;6.580;2022-12-18T11:27:25;13.25;;;5.88;;
56233;SDS011;42141;53.240;6.580;2022-12-18T11:29:53;8.20;;;5.28;;
56233;SDS011;42141;53.240;6.580;2022-12-18T11:33:03;9.85;;;5.38;;
56233;SDS011;42141;53.240;6.580;2022-12-18T11:35:37;8.35;;;5.38;;
56233;SDS011;42141;53.240;6.580;2022-12-18T11:38:19;9.73;;;5.80;;
56233;SDS011;42141;53.240;6.580;2022-12-18T11:40:56;10.20;;;6.35;;
56233;SDS011;42141;53.240;6.580;2022-12-18T11:43:41;6.60;;;4.57;;
56233;SDS011;42141;53.240;6.580;2022-12-18T11:46:35;10.85;;;5.07;;
56233;SDS011;42141;53.240;6.580;2022-12-18T11:49:11;13.75;;;6.18;;
56233;SDS011;42141;53.240;6.580;2022-12-18T11:51:45;11.32;;;5.03;;
56233;SDS011;42141;53.240;6.580;2022-12-18T11:54:16;10.23;;;5.10;;
56233;SDS011;42141;53.240;6.580;2022-12-18T11:56:53;7.75;;;4.78;;
56233;SDS011;42141;53.240;6.580;2022-12-18T12:02:12;9.45;;;4.72;;
56233;SDS011;42141;53.240;6.580;2022-12-18T12:05:04;7.75;;;4.38;;
56233;SDS011;42141;53.240;6.580;2022-12-18T12:13:43;7.90;;;4.93;;
56233;SDS011;42141;53.240;6.580;2022-12-18T12:21:39;7.82;;;4.30;;
56233;SDS011;42141;53.240;6.580;2022-12-18T12:27:22;20.58;;;8.20;;
56233;SDS011;42141;53.240;6.580;2022-12-18T12:30:20;13.05;;;5.13;;
56233;SDS011;42141;53.240;6.580;2022-12-18T12:33:02;8.88;;;4.93;;
56233;SDS011;42141;53.240;6.580;2022-12-18T12:38:33;8.15;;;4.63;;
56233;SDS011;42141;53.240;6.580;2022-12-18T12:41:06;7.82;;;4.53;;
56233;SDS011;42141;53.240;6.580;2022-12-18T12:43:57;8.95;;;4.53;;
56233;SDS011;42141;53.240;6.580;2022-12-18T12:46:27;8.70;;;4.55;;
56233;SDS011;42141;53.240;6.580;2022-12-18T12:48:55;8.93;;;4.95;;
56233;SDS011;42141;53.240;6.580;2022-12-18T12:51:36;7.22;;;4.72;;
56233;SDS011;42141;53.240;6.580;2022-12-18T12:54:06;11.98;;;4.93;;
56233;SDS011;42141;53.240;6.580;2022-12-18T12:56:46;7.72;;;4.38;;
56233;SDS011;42141;53.240;6.580;2022-12-18T12:59:33;10.55;;;4.18;;
56233;SDS011;42141;53.240;6.580;2022-12-18T13:08:53;8.45;;;4.22;;
56233;SDS011;42141;53.240;6.580;2022-12-18T13:11:37;9.57;;;4.35;;
56233;SDS011;42141;53.240;6.580;2022-12-18T13:17:14;10.77;;;4.97;;
56233;SDS011;42141;53.240;6.580;2022-12-18T13:20:02;10.02;;;4.53;;
56233;SDS011;42141;53.240;6.580;2022-12-18T13:22:34;9.52;;;4.90;;
56233;SDS011;42141;53.240;6.580;2022-12-18T13:25:03;12.20;;;5.18;;
56233;SDS011;42141;53.240;6.580;2022-12-18T13:35:41;8.77;;;5.10;;
56233;SDS011;42141;53.240;6.580;2022-12-18T13:41:00;8.30;;;3.93;;
56233;SDS011;42141;53.240;6.580;2022-12-18T13:43:28;11.20;;;4.85;;
56233;SDS011;42141;53.240;6.580;2022-12-18T13:48:51;7.35;;;3.75;;
56233;SDS011;42141;53.240;6.580;2022-12-18T13:51:17;7.97;;;4.20;;
56233;SDS011;42141;53.240;6.580;2022-12-18T13:53:53;7.22;;;4.40;;
56233;SDS011;42141;53.240;6.580;2022-12-18T13:56:24;8.00;;;4.18;;
56233;SDS011;42141;53.240;6.580;2022-12-18T14:01:47;3.72;;;2.58;;
56233;SDS011;42141;53.240;6.580;2022-12-18T14:04:23;6.65;;;3.70;;
56233;SDS011;42141;53.240;6.580;2022-12-18T14:09:40;7.32;;;3.92;;
56233;SDS011;42141;53.240;6.580;2022-12-18T14:12:16;8.38;;;4.32;;
56233;SDS011;42141;53.240;6.580;2022-12-18T14:15:01;7.93;;;4.40;;
56233;SDS011;42141;53.240;6.580;2022-12-18T14:17:28;6.20;;;3.75;;
56233;SDS011;42141;53.240;6.580;2022-12-18T14:19:54;6.97;;;3.85;;
56233;SDS011;42141;53.240;6.580;2022-12-18T14:22:20;7.95;;;4.40;;
56233;SDS011;42141;53.240;6.580;2022-12-18T14:28:08;7.63;;;4.30;;
56233;SDS011;42141;53.240;6.580;2022-12-18T14:30:40;8.70;;;4.50;;
56233;SDS011;42141;53.240;6.580;2022-12-18T14:35:34;9.13;;;4.07;;
56233;SDS011;42141;53.240;6.580;2022-12-18T14:40:57;8.25;;;3.90;;
56233;SDS011;42141;53.240;6.580;2022-12-18T14:43:24;7.45;;;4.70;;
56233;SDS011;42141;53.240;6.580;2022-12-18T14:45:50;9.45;;;4.57;;
56233;SDS011;42141;53.240;6.580;2022-12-18T14:48:21;7.25;;;3.97;;
56233;SDS011;42141;53.240;6.580;2022-12-18T14:53:47;8.85;;;4.97;;
56233;SDS011;42141;53.240;6.580;2022-12-18T14:56:30;12.30;;;5.05;;
56233;SDS011;42141;53.240;6.580;2022-12-18T15:01:49;10.00;;;4.10;;
56233;SDS011;42141;53.240;6.580;2022-12-18T15:04:38;11.13;;;4.85;;
56233;SDS011;42141;53.240;6.580;2022-12-18T15:09:37;10.85;;;5.55;;
56233;SDS011;42141;53.240;6.580;2022-12-18T15:12:04;10.55;;;5.53;;
56233;SDS011;42141;53.240;6.580;2022-12-18T15:17:03;11.65;;;5.40;;
56233;SDS011;42141;53.240;6.580;2022-12-18T15:19:40;11.50;;;6.28;;
56233;SDS011;42141;53.240;6.580;2022-12-18T15:28:04;10.93;;;6.03;;
56233;SDS011;42141;53.240;6.580;2022-12-18T15:30:59;14.77;;;6.50;;
56233;SDS011;42141;53.240;6.580;2022-12-18T15:33:38;14.88;;;6.00;;
56233;SDS011;42141;53.240;6.580;2022-12-18T15:36:12;10.63;;;5.65;;
56233;SDS011;42141;53.240;6.580;2022-12-18T15:38:39;12.48;;;6.45;;
56233;SDS011;42141;53.240;6.580;2022-12-18T15:41:05;12.60;;;6.25;;
56233;SDS011;42141;53.240;6.580;2022-12-18T15:43:37;11.70;;;6.57;;
56233;SDS011;42141;53.240;6.580;2022-12-18T15:46:13;12.57;;;7.13;;
56233;SDS011;42141;53.240;6.580;2022-12-18T15:48:44;11.13;;;6.43;;
56233;SDS011;42141;53.240;6.580;2022-12-18T15:51:16;12.18;;;6.43;;
56233;SDS011;42141;53.240;6.580;2022-12-18T15:53:45;10.95;;;6.32;;
56233;SDS011;42141;53.240;6.580;2022-12-18T15:56:12;11.23;;;6.90;;
56233;SDS011;42141;53.240;6.580;2022-12-18T15:58:58;11.00;;;6.65;;
56233;SDS011;42141;53.240;6.580;2022-12-18T16:01:25;15.55;;;7.00;;
56233;SDS011;42141;53.240;6.580;2022-12-18T16:03:54;14.05;;;6.80;;
56233;SDS011;42141;53.240;6.580;2022-12-18T16:06:20;11.10;;;6.80;;
56233;SDS011;42141;53.240;6.580;2022-12-18T16:08:49;12.43;;;6.72;;
56233;SDS011;42141;53.240;6.580;2022-12-18T16:11:23;13.40;;;7.45;;
56233;SDS011;42141;53.240;6.580;2022-12-18T16:14:04;13.10;;;7.00;;
56233;SDS011;42141;53.240;6.580;2022-12-18T16:16:31;12.45;;;7.03;;
56233;SDS011;42141;53.240;6.580;2022-12-18T16:18:56;12.85;;;7.25;;
56233;SDS011;42141;53.240;6.580;2022-12-18T16:21:22;12.30;;;7.22;;
56233;SDS011;42141;53.240;6.580;2022-12-18T16:23:48;13.27;;;7.10;;
56233;SDS011;42141;53.240;6.580;2022-12-18T16:26:13;13.23;;;6.47;;
56233;SDS011;42141;53.240;6.580;2022-12-18T16:28:39;12.38;;;6.80;;
56233;SDS011;42141;53.240;6.580;2022-12-18T16:31:05;11.90;;;6.13;;
56233;SDS011;42141;53.240;6.580;2022-12-18T16:33:30;12.60;;;6.55;;
56233;SDS011;42141;53.240;6.580;2022-12-18T16:35:56;10.95;;;6.43;;
56233;SDS011;42141;53.240;6.580;2022-12-18T16:38:22;11.95;;;6.72;;
56233;SDS011;42141;53.240;6.580;2022-12-18T16:40:47;12.10;;;7.00;;
56233;SDS011;42141;53.240;6.580;2022-12-18T16:43:31;9.43;;;5.78;;
56233;SDS011;42141;53.240;6.580;2022-12-18T16:45:58;12.20;;;5.88;;
56233;SDS011;42141;53.240;6.580;2022-12-18T16:48:24;10.45;;;6.38;;
56233;SDS011;42141;53.240;6.580;2022-12-18T16:50:49;9.63;;;5.53;;
56233;SDS011;42141;53.240;6.580;2022-12-18T16:53:24;13.88;;;5.80;;